sensor_id;sensor_type;location;lat;lon;timestamp;temperature;humidity
11639;DHT22;5875;35.940;126.892;2022-12-07T00:01:12;4.90;99.90
11639;DHT22;5875;35.940;126.892;2022-12-07T00:03:41;5.10;99.90
11639;DHT22;5875;35.940;126.892;2022-12-07T00:06:10;5.30;99.90
11639;DHT22;5875;35.940;126.892;2022-12-07T00:08:37;5.70;99.90
11639;DHT22;5875;35.940;126.892;2022-12-07T00:11:06;6.00;99.90
11639;DHT22;5875;35.940;126.892;2022-12-07T00:13:35;6.40;99.90
11639;DHT22;5875;35.940;126.892;2022-12-07T00:16:16;6.70;99.90
11639;DHT22;5875;35.940;126.892;2022-12-07T00:18:44;6.90;99.90
11639;DHT22;5875;35.940;126.892;2022-12-07T00:21:23;6.70;99.90
11639;DHT22;5875;35.940;126.892;2022-12-07T00:23:52;6.40;99.90
11639;DHT22;5875;35.940;126.892;2022-12-07T00:26:27;6.40;99.90
11639;DHT22;5875;35.940;126.892;2022-12-07T00:28:59;6.30;99.90
11639;DHT22;5875;35.940;126.892;2022-12-07T00:31:30;6.20;99.90
11639;DHT22;5875;35.940;126.892;2022-12-07T00:34:00;6.00;99.90
11639;DHT22;5875;35.940;126.892;2022-12-07T00:36:27;5.90;99.90
11639;DHT22;5875;35.940;126.892;2022-12-07T00:38:57;5.80;99.90
11639;DHT22;5875;35.940;126.892;2022-12-07T00:41:26;5.90;99.90
11639;DHT22;5875;35.940;126.892;2022-12-07T00:43:53;5.90;99.90
11639;DHT22;5875;35.940;126.892;2022-12-07T00:46:21;5.80;99.90
11639;DHT22;5875;35.940;126.892;2022-12-07T00:48:50;5.90;99.90
11639;DHT22;5875;35.940;126.892;2022-12-07T00:51:19;6.00;99.90
11639;DHT22;5875;35.940;126.892;2022-12-07T00:53:46;6.10;99.90
11639;DHT22;5875;35.940;126.892;2022-12-07T00:56:21;6.40;99.90
11639;DHT22;5875;35.940;126.892;2022-12-07T00:58:57;6.30;99.90
11639;DHT22;5875;35.940;126.892;2022-12-07T01:01:27;6.80;99.90
11639;DHT22;5875;35.940;126.892;2022-12-07T01:03:54;7.90;99.90
11639;DHT22;5875;35.940;126.892;2022-12-07T01:06:23;8.40;99.90
11639;DHT22;5875;35.940;126.892;2022-12-07T01:08:50;9.10;99.90
11639;DHT22;5875;35.940;126.892;2022-12-07T01:11:21;10.00;99.90
11639;DHT22;5875;35.940;126.892;2022-12-07T01:13:51;9.90;99.90
11639;DHT22;5875;35.940;126.892;2022-12-07T01:16:19;10.30;99.90
11639;DHT22;5875;35.940;126.892;2022-12-07T01:18:49;10.30;99.90
11639;DHT22;5875;35.940;126.892;2022-12-07T01:21:19;10.30;99.90
11639;DHT22;5875;35.940;126.892;2022-12-07T01:23:48;10.30;99.90
11639;DHT22;5875;35.940;126.892;2022-12-07T01:26:18;10.40;99.90
11639;DHT22;5875;35.940;126.892;2022-12-07T01:28:45;10.50;99.90
11639;DHT22;5875;35.940;126.892;2022-12-07T01:31:18;10.60;99.90
11639;DHT22;5875;35.940;126.892;2022-12-07T01:33:48;10.60;99.90
11639;DHT22;5875;35.940;126.892;2022-12-07T01:38:46;10.80;99.90
11639;DHT22;5875;35.940;126.892;2022-12-07T01:41:14;10.70;99.90
11639;DHT22;5875;35.940;126.892;2022-12-07T01:44:10;10.70;99.90
11639;DHT22;5875;35.940;126.892;2022-12-07T01:46:38;10.60;99.90
11639;DHT22;5875;35.940;126.892;2022-12-07T01:49:12;10.60;99.90
11639;DHT22;5875;35.940;126.892;2022-12-07T01:51:42;10.50;99.90
11639;DHT22;5875;35.940;126.892;2022-12-07T01:54:12;10.80;99.90
11639;DHT22;5875;35.940;126.892;2022-12-07T01:56:43;10.80;99.90
11639;DHT22;5875;35.940;126.892;2022-12-07T01:59:12;10.70;99.90
11639;DHT22;5875;35.940;126.892;2022-12-07T02:01:40;10.90;99.90
11639;DHT22;5875;35.940;126.892;2022-12-07T02:04:07;11.00;99.90
11639;DHT22;5875;35.940;126.892;2022-12-07T02:06:36;11.10;99.90
11639;DHT22;5875;35.940;126.892;2022-12-07T02:09:03;11.30;99.90
11639;DHT22;5875;35.940;126.892;2022-12-07T02:11:31;11.40;99.90
11639;DHT22;5875;35.940;126.892;2022-12-07T02:13:58;11.60;99.90
11639;DHT22;5875;35.940;126.892;2022-12-07T02:25:08;12.50;99.90
11639;DHT22;5875;35.940;126.892;2022-12-07T02:30:14;13.20;99.90
11639;DHT22;5875;35.940;126.892;2022-12-07T02:35:51;13.60;99.90
11639;DHT22;5875;35.940;126.892;2022-12-07T02:41:10;13.20;99.90
11639;DHT22;5875;35.940;126.892;2022-12-07T02:43:43;13.20;99.90
11639;DHT22;5875;35.940;126.892;2022-12-07T02:46:16;13.50;99.90
11639;DHT22;5875;35.940;126.892;2022-12-07T02:48:46;13.80;99.90
11639;DHT22;5875;35.940;126.892;2022-12-07T02:51:14;14.00;99.90
11639;DHT22;5875;35.940;126.892;2022-12-07T02:53:43;14.00;99.90
11639;DHT22;5875;35.940;126.892;2022-12-07T02:56:16;13.70;99.90
11639;DHT22;5875;35.940;126.892;2022-12-07T03:18:25;14.40;99.90
11639;DHT22;5875;35.940;126.892;2022-12-07T03:20:58;14.60;99.90
11639;DHT22;5875;35.940;126.892;2022-12-07T03:23:28;14.90;99.90
11639;DHT22;5875;35.940;126.892;2022-12-07T03:25:58;14.60;99.90
11639;DHT22;5875;35.940;126.892;2022-12-07T03:28:31;14.20;99.90
11639;DHT22;5875;35.940;126.892;2022-12-07T03:31:24;14.00;99.90
11639;DHT22;5875;35.940;126.892;2022-12-07T03:34:10;13.70;99.90
11639;DHT22;5875;35.940;126.892;2022-12-07T03:36:55;13.50;99.90
11639;DHT22;5875;35.940;126.892;2022-12-07T03:39:31;13.40;99.90
11639;DHT22;5875;35.940;126.892;2022-12-07T03:42:01;13.30;99.90
11639;DHT22;5875;35.940;126.892;2022-12-07T03:44:31;13.60;99.90
11639;DHT22;5875;35.940;126.892;2022-12-07T03:47:33;13.70;99.90
11639;DHT22;5875;35.940;126.892;2022-12-07T03:52:44;14.40;99.90
11639;DHT22;5875;35.940;126.892;2022-12-07T03:55:31;14.60;99.90
11639;DHT22;5875;35.940;126.892;2022-12-07T03:58:09;14.50;99.90
11639;DHT22;5875;35.940;126.892;2022-12-07T04:00:38;14.20;99.90
11639;DHT22;5875;35.940;126.892;2022-12-07T04:03:05;14.10;99.90
11639;DHT22;5875;35.940;126.892;2022-12-07T04:05:32;14.40;99.90
11639;DHT22;5875;35.940;126.892;2022-12-07T04:07:59;14.70;99.90
11639;DHT22;5875;35.940;126.892;2022-12-07T04:10:26;15.10;99.90
11639;DHT22;5875;35.940;126.892;2022-12-07T04:12:53;15.10;99.90
11639;DHT22;5875;35.940;126.892;2022-12-07T04:15:21;14.80;99.90
11639;DHT22;5875;35.940;126.892;2022-12-07T04:17:48;14.60;99.90
11639;DHT22;5875;35.940;126.892;2022-12-07T04:20:15;14.60;99.90
11639;DHT22;5875;35.940;126.892;2022-12-07T04:22:42;14.80;99.90
11639;DHT22;5875;35.940;126.892;2022-12-07T04:25:10;14.90;99.90
11639;DHT22;5875;35.940;126.892;2022-12-07T04:27:37;15.10;99.90
11639;DHT22;5875;35.940;126.892;2022-12-07T04:30:05;15.10;99.90
11639;DHT22;5875;35.940;126.892;2022-12-07T04:32:32;15.20;99.90
11639;DHT22;5875;35.940;126.892;2022-12-07T04:34:59;15.10;99.90
11639;DHT22;5875;35.940;126.892;2022-12-07T04:37:26;15.10;99.90
11639;DHT22;5875;35.940;126.892;2022-12-07T04:39:53;15.20;99.90
11639;DHT22;5875;35.940;126.892;2022-12-07T04:42:21;15.20;99.90
11639;DHT22;5875;35.940;126.892;2022-12-07T04:44:48;15.20;99.90
11639;DHT22;5875;35.940;126.892;2022-12-07T04:47:15;15.10;99.90
11639;DHT22;5875;35.940;126.892;2022-12-07T04:49:42;15.20;99.90
11639;DHT22;5875;35.940;126.892;2022-12-07T04:52:09;15.30;99.90
11639;DHT22;5875;35.940;126.892;2022-12-07T04:54:36;15.40;99.90
11639;DHT22;5875;35.940;126.892;2022-12-07T04:57:03;15.40;99.90
11639;DHT22;5875;35.940;126.892;2022-12-07T04:59:31;15.50;99.90
11639;DHT22;5875;35.940;126.892;2022-12-07T05:01:58;15.50;99.90
11639;DHT22;5875;35.940;126.892;2022-12-07T05:04:25;15.40;99.90
11639;DHT22;5875;35.940;126.892;2022-12-07T05:06:52;15.20;99.90
11639;DHT22;5875;35.940;126.892;2022-12-07T05:09:19;15.10;99.90
11639;DHT22;5875;35.940;126.892;2022-12-07T05:11:46;15.00;99.90
11639;DHT22;5875;35.940;126.892;2022-12-07T05:14:19;15.00;99.90
11639;DHT22;5875;35.940;126.892;2022-12-07T05:16:49;14.80;99.80
11639;DHT22;5875;35.940;126.892;2022-12-07T05:19:18;14.70;98.70
11639;DHT22;5875;35.940;126.892;2022-12-07T05:21:45;14.70;99.20
11639;DHT22;5875;35.940;126.892;2022-12-07T05:24:14;14.60;97.60
11639;DHT22;5875;35.940;126.892;2022-12-07T05:26:42;14.50;96.40
11639;DHT22;5875;35.940;126.892;2022-12-07T05:29:12;14.40;96.00
11639;DHT22;5875;35.940;126.892;2022-12-07T05:31:40;14.40;96.40
11639;DHT22;5875;35.940;126.892;2022-12-07T05:34:07;14.40;95.60
11639;DHT22;5875;35.940;126.892;2022-12-07T05:36:34;14.30;94.90
11639;DHT22;5875;35.940;126.892;2022-12-07T05:39:01;14.40;95.40
11639;DHT22;5875;35.940;126.892;2022-12-07T05:41:28;14.50;95.50
11639;DHT22;5875;35.940;126.892;2022-12-07T05:44:14;14.30;93.40
11639;DHT22;5875;35.940;126.892;2022-12-07T05:46:41;14.20;92.40
11639;DHT22;5875;35.940;126.892;2022-12-07T05:49:08;14.20;92.70
11639;DHT22;5875;35.940;126.892;2022-12-07T05:51:35;14.20;91.90
11639;DHT22;5875;35.940;126.892;2022-12-07T05:54:03;14.10;91.60
11639;DHT22;5875;35.940;126.892;2022-12-07T05:56:30;14.00;90.80
11639;DHT22;5875;35.940;126.892;2022-12-07T05:58:57;13.90;90.90
11639;DHT22;5875;35.940;126.892;2022-12-07T06:01:43;14.00;91.30
11639;DHT22;5875;35.940;126.892;2022-12-07T06:04:10;13.90;90.40
11639;DHT22;5875;35.940;126.892;2022-12-07T06:06:37;13.80;89.60
11639;DHT22;5875;35.940;126.892;2022-12-07T06:09:04;13.60;88.40
11639;DHT22;5875;35.940;126.892;2022-12-07T06:11:32;13.50;87.50
11639;DHT22;5875;35.940;126.892;2022-12-07T06:14:17;13.30;87.20
11639;DHT22;5875;35.940;126.892;2022-12-07T06:16:44;13.30;87.90
11639;DHT22;5875;35.940;126.892;2022-12-07T06:19:11;13.20;88.40
11639;DHT22;5875;35.940;126.892;2022-12-07T06:21:38;13.20;87.90
11639;DHT22;5875;35.940;126.892;2022-12-07T06:24:06;13.10;87.50
11639;DHT22;5875;35.940;126.892;2022-12-07T06:26:33;13.10;88.50
11639;DHT22;5875;35.940;126.892;2022-12-07T06:29:00;13.10;89.50
11639;DHT22;5875;35.940;126.892;2022-12-07T06:31:27;13.10;90.20
11639;DHT22;5875;35.940;126.892;2022-12-07T06:34:03;13.00;89.30
11639;DHT22;5875;35.940;126.892;2022-12-07T06:36:31;13.00;89.40
11639;DHT22;5875;35.940;126.892;2022-12-07T06:38:58;13.00;90.10
11639;DHT22;5875;35.940;126.892;2022-12-07T06:41:25;13.10;90.50
11639;DHT22;5875;35.940;126.892;2022-12-07T06:43:52;13.10;90.70
11639;DHT22;5875;35.940;126.892;2022-12-07T06:46:20;13.10;90.20
11639;DHT22;5875;35.940;126.892;2022-12-07T06:48:48;13.10;89.50
11639;DHT22;5875;35.940;126.892;2022-12-07T06:51:15;13.00;89.20
11639;DHT22;5875;35.940;126.892;2022-12-07T06:53:43;13.00;87.80
11639;DHT22;5875;35.940;126.892;2022-12-07T06:56:11;12.90;87.40
11639;DHT22;5875;35.940;126.892;2022-12-07T06:58:40;12.90;88.20
11639;DHT22;5875;35.940;126.892;2022-12-07T07:01:13;12.90;88.20
11639;DHT22;5875;35.940;126.892;2022-12-07T07:03:40;12.80;88.50
11639;DHT22;5875;35.940;126.892;2022-12-07T07:06:09;12.70;87.70
11639;DHT22;5875;35.940;126.892;2022-12-07T07:08:38;12.70;88.70
11639;DHT22;5875;35.940;126.892;2022-12-07T07:11:07;12.60;88.60
11639;DHT22;5875;35.940;126.892;2022-12-07T07:13:36;12.50;89.40
11639;DHT22;5875;35.940;126.892;2022-12-07T07:16:05;12.40;90.00
11639;DHT22;5875;35.940;126.892;2022-12-07T07:18:33;12.30;89.60
11639;DHT22;5875;35.940;126.892;2022-12-07T07:21:01;12.20;89.80
11639;DHT22;5875;35.940;126.892;2022-12-07T07:23:28;12.10;90.10
11639;DHT22;5875;35.940;126.892;2022-12-07T07:25:57;12.10;90.10
11639;DHT22;5875;35.940;126.892;2022-12-07T07:28:24;12.00;90.00
11639;DHT22;5875;35.940;126.892;2022-12-07T07:30:51;11.90;90.70
11639;DHT22;5875;35.940;126.892;2022-12-07T07:33:19;11.80;90.50
11639;DHT22;5875;35.940;126.892;2022-12-07T07:35:47;11.70;90.70
11639;DHT22;5875;35.940;126.892;2022-12-07T07:38:16;11.60;91.10
11639;DHT22;5875;35.940;126.892;2022-12-07T07:40:44;11.50;90.80
11639;DHT22;5875;35.940;126.892;2022-12-07T07:43:11;11.50;91.20
11639;DHT22;5875;35.940;126.892;2022-12-07T07:45:39;11.40;91.50
11639;DHT22;5875;35.940;126.892;2022-12-07T07:48:06;11.30;91.60
11639;DHT22;5875;35.940;126.892;2022-12-07T07:50:34;11.20;92.10
11639;DHT22;5875;35.940;126.892;2022-12-07T07:53:01;11.10;92.60
11639;DHT22;5875;35.940;126.892;2022-12-07T07:55:28;11.00;92.70
11639;DHT22;5875;35.940;126.892;2022-12-07T07:57:56;10.90;93.30
11639;DHT22;5875;35.940;126.892;2022-12-07T08:00:24;10.90;93.90
11639;DHT22;5875;35.940;126.892;2022-12-07T08:02:51;10.80;93.90
11639;DHT22;5875;35.940;126.892;2022-12-07T08:05:19;10.70;94.00
11639;DHT22;5875;35.940;126.892;2022-12-07T08:07:48;10.60;94.40
11639;DHT22;5875;35.940;126.892;2022-12-07T08:10:17;10.50;94.30
11639;DHT22;5875;35.940;126.892;2022-12-07T08:12:44;10.40;94.90
11639;DHT22;5875;35.940;126.892;2022-12-07T08:15:31;10.30;95.30
11639;DHT22;5875;35.940;126.892;2022-12-07T08:17:59;10.30;96.00
11639;DHT22;5875;35.940;126.892;2022-12-07T08:20:26;10.20;96.40
11639;DHT22;5875;35.940;126.892;2022-12-07T08:22:53;10.10;96.70
11639;DHT22;5875;35.940;126.892;2022-12-07T08:25:21;10.00;97.00
11639;DHT22;5875;35.940;126.892;2022-12-07T08:27:53;10.00;97.70
11639;DHT22;5875;35.940;126.892;2022-12-07T08:30:21;9.90;98.20
11639;DHT22;5875;35.940;126.892;2022-12-07T08:32:49;9.80;98.40
11639;DHT22;5875;35.940;126.892;2022-12-07T08:35:16;9.70;98.80
11639;DHT22;5875;35.940;126.892;2022-12-07T08:37:43;9.60;99.10
11639;DHT22;5875;35.940;126.892;2022-12-07T08:40:12;9.50;99.30
11639;DHT22;5875;35.940;126.892;2022-12-07T08:42:49;9.40;99.70
11639;DHT22;5875;35.940;126.892;2022-12-07T08:45:18;9.30;99.90
11639;DHT22;5875;35.940;126.892;2022-12-07T08:48:15;9.20;99.90
11639;DHT22;5875;35.940;126.892;2022-12-07T08:50:49;9.10;99.90
11639;DHT22;5875;35.940;126.892;2022-12-07T08:53:17;9.10;99.90
11639;DHT22;5875;35.940;126.892;2022-12-07T08:55:45;9.00;99.90
11639;DHT22;5875;35.940;126.892;2022-12-07T08:58:13;8.90;99.90
11639;DHT22;5875;35.940;126.892;2022-12-07T09:00:40;8.90;99.90
11639;DHT22;5875;35.940;126.892;2022-12-07T09:03:08;8.80;99.90
11639;DHT22;5875;35.940;126.892;2022-12-07T09:05:35;8.70;99.90
11639;DHT22;5875;35.940;126.892;2022-12-07T09:08:02;8.60;99.90
11639;DHT22;5875;35.940;126.892;2022-12-07T09:10:30;8.60;99.90
11639;DHT22;5875;35.940;126.892;2022-12-07T09:12:57;8.50;99.90
11639;DHT22;5875;35.940;126.892;2022-12-07T09:15:28;8.40;99.90
11639;DHT22;5875;35.940;126.892;2022-12-07T09:17:57;8.30;99.90
11639;DHT22;5875;35.940;126.892;2022-12-07T09:20:24;8.20;99.90
11639;DHT22;5875;35.940;126.892;2022-12-07T09:22:53;8.10;99.90
11639;DHT22;5875;35.940;126.892;2022-12-07T09:25:20;8.00;99.90
11639;DHT22;5875;35.940;126.892;2022-12-07T09:27:48;8.00;99.90
11639;DHT22;5875;35.940;126.892;2022-12-07T09:30:15;7.90;99.90
11639;DHT22;5875;35.940;126.892;2022-12-07T09:32:42;7.90;99.90
11639;DHT22;5875;35.940;126.892;2022-12-07T09:35:11;7.90;99.90
11639;DHT22;5875;35.940;126.892;2022-12-07T09:37:38;7.80;99.90
11639;DHT22;5875;35.940;126.892;2022-12-07T09:40:06;7.70;99.90
11639;DHT22;5875;35.940;126.892;2022-12-07T09:42:39;7.70;99.90
11639;DHT22;5875;35.940;126.892;2022-12-07T09:45:23;7.60;99.90
11639;DHT22;5875;35.940;126.892;2022-12-07T09:47:51;7.60;99.90
11639;DHT22;5875;35.940;126.892;2022-12-07T09:50:24;7.50;99.90
11639;DHT22;5875;35.940;126.892;2022-12-07T09:52:53;7.50;99.90
11639;DHT22;5875;35.940;126.892;2022-12-07T09:55:28;7.50;99.90
11639;DHT22;5875;35.940;126.892;2022-12-07T09:57:58;7.40;99.90
11639;DHT22;5875;35.940;126.892;2022-12-07T10:00:26;7.40;99.90
11639;DHT22;5875;35.940;126.892;2022-12-07T10:03:02;7.30;99.90
11639;DHT22;5875;35.940;126.892;2022-12-07T10:05:40;7.20;99.90
11639;DHT22;5875;35.940;126.892;2022-12-07T10:08:13;7.10;99.90
11639;DHT22;5875;35.940;126.892;2022-12-07T10:10:41;7.00;99.90
11639;DHT22;5875;35.940;126.892;2022-12-07T10:13:10;6.90;99.90
11639;DHT22;5875;35.940;126.892;2022-12-07T10:15:47;6.90;99.90
11639;DHT22;5875;35.940;126.892;2022-12-07T10:21:15;6.70;99.90
11639;DHT22;5875;35.940;126.892;2022-12-07T10:26:47;6.60;99.90
11639;DHT22;5875;35.940;126.892;2022-12-07T10:29:51;6.50;99.90
11639;DHT22;5875;35.940;126.892;2022-12-07T10:34:44;6.40;99.90
11639;DHT22;5875;35.940;126.892;2022-12-07T10:39:52;6.40;99.90
11639;DHT22;5875;35.940;126.892;2022-12-07T10:42:23;6.40;99.90
11639;DHT22;5875;35.940;126.892;2022-12-07T10:45:17;6.40;99.90
11639;DHT22;5875;35.940;126.892;2022-12-07T10:48:10;6.40;99.90
11639;DHT22;5875;35.940;126.892;2022-12-07T10:51:09;6.40;99.90
11639;DHT22;5875;35.940;126.892;2022-12-07T10:58:48;6.30;99.90
11639;DHT22;5875;35.940;126.892;2022-12-07T11:07:17;6.30;99.90
11639;DHT22;5875;35.940;126.892;2022-12-07T11:10:19;6.30;99.90
11639;DHT22;5875;35.940;126.892;2022-12-07T11:12:55;6.20;99.90
11639;DHT22;5875;35.940;126.892;2022-12-07T11:21:48;6.20;99.90
11639;DHT22;5875;35.940;126.892;2022-12-07T11:24:46;6.10;99.90
11639;DHT22;5875;35.940;126.892;2022-12-07T11:30:23;6.10;99.90
11639;DHT22;5875;35.940;126.892;2022-12-07T11:33:20;6.00;99.90
11639;DHT22;5875;35.940;126.892;2022-12-07T11:38:52;5.60;99.90
11639;DHT22;5875;35.940;126.892;2022-12-07T11:41:24;5.50;99.90
11639;DHT22;5875;35.940;126.892;2022-12-07T11:46:49;5.50;99.90
11639;DHT22;5875;35.940;126.892;2022-12-07T12:00:51;5.50;99.90
11639;DHT22;5875;35.940;126.892;2022-12-07T12:03:35;5.40;99.90
11639;DHT22;5875;35.940;126.892;2022-12-07T12:06:04;5.40;99.90
11639;DHT22;5875;35.940;126.892;2022-12-07T12:08:55;5.40;99.90
11639;DHT22;5875;35.940;126.892;2022-12-07T12:11:50;5.40;99.90
11639;DHT22;5875;35.940;126.892;2022-12-07T12:15:47;5.40;99.90
11639;DHT22;5875;35.940;126.892;2022-12-07T12:18:09;5.40;99.90
11639;DHT22;5875;35.940;126.892;2022-12-07T12:20:50;5.40;99.90
11639;DHT22;5875;35.940;126.892;2022-12-07T12:23:44;5.40;99.90
11639;DHT22;5875;35.940;126.892;2022-12-07T12:26:22;5.40;99.90
11639;DHT22;5875;35.940;126.892;2022-12-07T12:28:52;5.40;99.90
11639;DHT22;5875;35.940;126.892;2022-12-07T12:33:52;5.40;99.90
11639;DHT22;5875;35.940;126.892;2022-12-07T12:39:10;5.30;99.90
11639;DHT22;5875;35.940;126.892;2022-12-07T12:47:00;5.30;99.90
11639;DHT22;5875;35.940;126.892;2022-12-07T12:49:35;5.20;99.90
11639;DHT22;5875;35.940;126.892;2022-12-07T12:57:36;5.20;99.90
11639;DHT22;5875;35.940;126.892;2022-12-07T13:00:21;5.10;99.90
11639;DHT22;5875;35.940;126.892;2022-12-07T13:02:56;5.00;99.90
11639;DHT22;5875;35.940;126.892;2022-12-07T13:05:32;4.90;99.90
11639;DHT22;5875;35.940;126.892;2022-12-07T13:08:16;4.80;99.90
11639;DHT22;5875;35.940;126.892;2022-12-07T13:10:46;4.60;99.90
11639;DHT22;5875;35.940;126.892;2022-12-07T13:15:43;4.60;99.90
11639;DHT22;5875;35.940;126.892;2022-12-07T13:21:00;4.70;99.90
11639;DHT22;5875;35.940;126.892;2022-12-07T13:23:35;4.80;99.90
11639;DHT22;5875;35.940;126.892;2022-12-07T13:26:13;4.80;99.90
11639;DHT22;5875;35.940;126.892;2022-12-07T13:28:44;4.70;99.90
11639;DHT22;5875;35.940;126.892;2022-12-07T13:33:45;4.50;99.90
11639;DHT22;5875;35.940;126.892;2022-12-07T13:36:34;4.40;99.90
11639;DHT22;5875;35.940;126.892;2022-12-07T13:39:20;4.30;99.90
11639;DHT22;5875;35.940;126.892;2022-12-07T13:41:56;4.20;99.90
11639;DHT22;5875;35.940;126.892;2022-12-07T13:44:26;4.10;99.90
11639;DHT22;5875;35.940;126.892;2022-12-07T13:49:50;4.10;99.90
11639;DHT22;5875;35.940;126.892;2022-12-07T13:52:20;4.00;99.90
11639;DHT22;5875;35.940;126.892;2022-12-07T13:57:34;4.00;99.90
11639;DHT22;5875;35.940;126.892;2022-12-07T14:00:15;3.90;99.90
11639;DHT22;5875;35.940;126.892;2022-12-07T14:02:59;3.80;99.90
11639;DHT22;5875;35.940;126.892;2022-12-07T14:05:28;3.80;99.90
11639;DHT22;5875;35.940;126.892;2022-12-07T14:07:58;3.70;99.90
11639;DHT22;5875;35.940;126.892;2022-12-07T14:15:55;3.60;99.90
11639;DHT22;5875;35.940;126.892;2022-12-07T14:21:14;3.60;99.90
11639;DHT22;5875;35.940;126.892;2022-12-07T14:23:42;3.50;99.90
11639;DHT22;5875;35.940;126.892;2022-12-07T14:26:19;3.40;99.90
11639;DHT22;5875;35.940;126.892;2022-12-07T14:28:47;3.40;99.90
11639;DHT22;5875;35.940;126.892;2022-12-07T14:31:17;3.40;99.90
11639;DHT22;5875;35.940;126.892;2022-12-07T14:33:46;3.30;99.90
11639;DHT22;5875;35.940;126.892;2022-12-07T14:36:14;3.30;99.90
11639;DHT22;5875;35.940;126.892;2022-12-07T14:38:41;3.40;99.90
11639;DHT22;5875;35.940;126.892;2022-12-07T14:41:14;3.30;99.90
11639;DHT22;5875;35.940;126.892;2022-12-07T14:44:01;3.30;99.90
11639;DHT22;5875;35.940;126.892;2022-12-07T14:46:28;3.20;99.90
11639;DHT22;5875;35.940;126.892;2022-12-07T14:48:55;3.20;99.90
11639;DHT22;5875;35.940;126.892;2022-12-07T14:51:22;3.30;99.90
11639;DHT22;5875;35.940;126.892;2022-12-07T14:53:51;3.30;99.90
11639;DHT22;5875;35.940;126.892;2022-12-07T14:56:18;3.30;99.90
11639;DHT22;5875;35.940;126.892;2022-12-07T14:58:46;3.30;99.90
11639;DHT22;5875;35.940;126.892;2022-12-07T15:01:15;3.30;99.90
11639;DHT22;5875;35.940;126.892;2022-12-07T15:03:42;3.20;99.90
11639;DHT22;5875;35.940;126.892;2022-12-07T15:06:14;3.20;99.90
11639;DHT22;5875;35.940;126.892;2022-12-07T15:08:42;3.10;99.90
11639;DHT22;5875;35.940;126.892;2022-12-07T15:11:19;3.10;99.90
11639;DHT22;5875;35.940;126.892;2022-12-07T15:13:47;3.00;99.90
11639;DHT22;5875;35.940;126.892;2022-12-07T15:16:32;3.10;99.90
11639;DHT22;5875;35.940;126.892;2022-12-07T15:18:59;3.20;99.90
11639;DHT22;5875;35.940;126.892;2022-12-07T15:21:26;3.20;99.90
11639;DHT22;5875;35.940;126.892;2022-12-07T15:23:54;3.20;99.90
11639;DHT22;5875;35.940;126.892;2022-12-07T15:26:21;3.30;99.90
11639;DHT22;5875;35.940;126.892;2022-12-07T15:28:48;3.30;99.90
11639;DHT22;5875;35.940;126.892;2022-12-07T15:31:16;3.40;99.90
11639;DHT22;5875;35.940;126.892;2022-12-07T15:33:44;3.30;99.90
11639;DHT22;5875;35.940;126.892;2022-12-07T15:36:22;3.30;99.90
11639;DHT22;5875;35.940;126.892;2022-12-07T15:38:50;3.40;99.90
11639;DHT22;5875;35.940;126.892;2022-12-07T15:41:17;3.40;99.90
11639;DHT22;5875;35.940;126.892;2022-12-07T15:43:45;3.30;99.90
11639;DHT22;5875;35.940;126.892;2022-12-07T15:46:32;3.30;99.90
11639;DHT22;5875;35.940;126.892;2022-12-07T15:49:00;3.40;99.90
11639;DHT22;5875;35.940;126.892;2022-12-07T15:51:28;3.30;99.90
11639;DHT22;5875;35.940;126.892;2022-12-07T15:53:56;3.30;99.90
11639;DHT22;5875;35.940;126.892;2022-12-07T15:56:24;3.30;99.90
11639;DHT22;5875;35.940;126.892;2022-12-07T15:58:51;3.30;99.90
11639;DHT22;5875;35.940;126.892;2022-12-07T16:01:19;3.30;99.90
11639;DHT22;5875;35.940;126.892;2022-12-07T16:03:47;3.30;99.90
11639;DHT22;5875;35.940;126.892;2022-12-07T16:06:18;3.40;99.90
11639;DHT22;5875;35.940;126.892;2022-12-07T16:08:46;3.30;99.90
11639;DHT22;5875;35.940;126.892;2022-12-07T16:11:13;3.20;99.90
11639;DHT22;5875;35.940;126.892;2022-12-07T16:13:41;3.20;99.90
11639;DHT22;5875;35.940;126.892;2022-12-07T16:16:12;3.20;99.90
11639;DHT22;5875;35.940;126.892;2022-12-07T16:18:41;3.20;99.90
11639;DHT22;5875;35.940;126.892;2022-12-07T16:21:09;3.10;99.90
11639;DHT22;5875;35.940;126.892;2022-12-07T16:23:36;3.00;99.90
11639;DHT22;5875;35.940;126.892;2022-12-07T16:26:09;3.00;99.90
11639;DHT22;5875;35.940;126.892;2022-12-07T16:28:37;3.00;99.90
11639;DHT22;5875;35.940;126.892;2022-12-07T16:31:11;3.00;99.90
11639;DHT22;5875;35.940;126.892;2022-12-07T16:33:40;3.00;99.90
11639;DHT22;5875;35.940;126.892;2022-12-07T16:36:09;3.10;99.90
11639;DHT22;5875;35.940;126.892;2022-12-07T16:38:37;3.10;99.90
11639;DHT22;5875;35.940;126.892;2022-12-07T16:41:06;3.00;99.90
11639;DHT22;5875;35.940;126.892;2022-12-07T16:43:33;3.00;99.90
11639;DHT22;5875;35.940;126.892;2022-12-07T16:46:01;3.00;99.90
11639;DHT22;5875;35.940;126.892;2022-12-07T16:48:29;3.00;99.90
11639;DHT22;5875;35.940;126.892;2022-12-07T16:50:56;2.90;99.90
11639;DHT22;5875;35.940;126.892;2022-12-07T16:53:25;3.00;99.90
11639;DHT22;5875;35.940;126.892;2022-12-07T16:55:52;3.00;99.90
11639;DHT22;5875;35.940;126.892;2022-12-07T16:58:19;3.00;99.90
11639;DHT22;5875;35.940;126.892;2022-12-07T17:00:46;3.00;99.90
11639;DHT22;5875;35.940;126.892;2022-12-07T17:03:14;3.00;99.90
11639;DHT22;5875;35.940;126.892;2022-12-07T17:05:44;3.00;99.90
11639;DHT22;5875;35.940;126.892;2022-12-07T17:08:12;3.00;99.90
11639;DHT22;5875;35.940;126.892;2022-12-07T17:10:43;3.00;99.90
11639;DHT22;5875;35.940;126.892;2022-12-07T17:13:11;3.00;99.90
11639;DHT22;5875;35.940;126.892;2022-12-07T17:16:07;3.00;99.90
11639;DHT22;5875;35.940;126.892;2022-12-07T17:18:35;3.00;99.90
11639;DHT22;5875;35.940;126.892;2022-12-07T17:21:07;3.00;99.90
11639;DHT22;5875;35.940;126.892;2022-12-07T17:23:36;3.00;99.90
11639;DHT22;5875;35.940;126.892;2022-12-07T17:26:14;3.00;99.90
11639;DHT22;5875;35.940;126.892;2022-12-07T17:28:42;3.00;99.90
11639;DHT22;5875;35.940;126.892;2022-12-07T17:31:12;3.00;99.90
11639;DHT22;5875;35.940;126.892;2022-12-07T17:33:39;3.00;99.90
11639;DHT22;5875;35.940;126.892;2022-12-07T17:36:15;3.00;99.90
11639;DHT22;5875;35.940;126.892;2022-12-07T17:38:43;3.00;99.90
11639;DHT22;5875;35.940;126.892;2022-12-07T17:41:15;3.00;99.90
11639;DHT22;5875;35.940;126.892;2022-12-07T17:44:09;3.00;99.90
11639;DHT22;5875;35.940;126.892;2022-12-07T17:46:37;3.00;99.90
11639;DHT22;5875;35.940;126.892;2022-12-07T17:49:04;3.00;99.90
11639;DHT22;5875;35.940;126.892;2022-12-07T17:51:32;3.00;99.90
11639;DHT22;5875;35.940;126.892;2022-12-07T17:54:18;3.00;99.90
11639;DHT22;5875;35.940;126.892;2022-12-07T17:56:46;2.90;99.90
11639;DHT22;5875;35.940;126.892;2022-12-07T17:59:13;2.90;99.90